Newcomb, New York
Current Conditions -  °F | °C
As of 6:51 AM on Sunday 25 Jan 2015 (Local Time) from KSLK Reporting Station
Light Snow Light Snow  
Wind Chill: -4°   Ceiling: 1600
Heat Index:   Visibility: 5mi
Dew Point:   Wind: 9mph
Humidity: 80%   Direction: 310°NW
Pressure: 29.52"   Gusts: 18mph
Location:  43.97°N, 74.16°W
Report Text: KSLK 251151Z AUTO 31008G16KT 280V340 5SM -SN OVC016 M13/M16 A2952 RMK AO2 SLP023 P0000 60003 70003 T11281156 11028 21128 53066 $
Loading
Personal Weather Stations






























Interactive Weather Map New forecast layout! Learn more

10-Day Weather Forecast

Advertisements
Track Severe Weather on mobile